| time (UTC) | temp C | wind direction | speed KPH | gust KPH | rain 1hr cm | rain 24hr cm | rain mn cm | humidity % | barometer mb |
| 20260906072127 | 10 | 317 | 32.2 | 41.8 | 0.00 | 0.00 | 0.00 | 73 | 1006.7 |
| 20260906070125 | 10 | 316 | 27.4 | 40.2 | 0.00 | 0.00 | 0.00 | 68 | 1006.3 |
| 20260906064455 | 10 | 327 | 24.1 | 32.2 | 0.00 | 0.00 | 0.00 | 69 | 1006.2 |
| 20260906062456 | 10 | 323 | 27.4 | 35.4 | 0.00 | 0.00 | 0.00 | 69 | 1006.2 |
| 20260906054455 | 9 | 318 | 25.7 | 32.2 | 0.00 | 0.00 | 0.00 | 77 | 1005.8 |
| 20260906052456 | 9 | 304 | 22.5 | 29.0 | 0.00 | 0.00 | 0.00 | 85 | 1005.6 |
| 20260906050456 | 9 | 307 | 20.9 | 27.4 | 0.00 | 0.00 | 0.00 | 84 | 1005.5 |
| 20260906044126 | 8 | 305 | 20.9 | 27.4 | 0.00 | 0.00 | 0.00 | 90 | 1005.4 |
| 20260906042126 | 8 | 302 | 20.9 | 27.4 | 0.00 | 0.00 | 0.00 | 90 | 1005.2 |
| 20260906034125 | 8 | 300 | 20.9 | 27.4 | 0.00 | 0.00 | 0.00 | 89 | 1004.9 |
| 20260906032455 | 9 | 304 | 20.9 | 25.7 | 0.00 | 0.00 | 0.00 | 87 | 1004.7 |
| 20260906030456 | 9 | 299 | 19.3 | 25.7 | 0.00 | 0.00 | 0.00 | 87 | 1004.6 |
| 20260906024456 | 9 | 302 | 20.9 | 25.7 | 0.00 | 0.00 | 0.00 | 82 | 1004.4 |
| 20260906022456 | 10 | 325 | 25.7 | 35.4 | 0.00 | 0.00 | 0.00 | 79 | 1004.1 |
| 20260906020456 | 10 | 342 | 33.8 | 41.8 | 0.00 | 0.00 | 0.00 | 78 | 1004.0 |
| 20260906014457 | 10 | 336 | 32.2 | 48.3 | 0.00 | 0.00 | 0.00 | 79 | 1003.8 |
| 20260906012455 | 10 | 337 | 35.4 | 43.5 | 0.00 | 0.00 | 0.00 | 79 | 1003.5 |
| 20260906010456 | 10 | 338 | 37.0 | 49.9 | 0.00 | 0.00 | 0.00 | 82 | 1003.3 |
| 20260906004457 | 11 | 342 | 37.0 | 49.9 | 0.00 | 0.00 | 0.00 | 80 | 1003.0 |
| 20260906002455 | 10 | 332 | 32.2 | 40.2 | 0.00 | 0.00 | 0.00 | 81 | 1002.8 |
| 20260906000125 | 10 | 321 | 22.5 | 32.2 | 0.00 | 0.00 | 0.00 | 86 | 1002.5 |
| 20260905234454 | 10 | 311 | 20.9 | 27.4 | 0.00 | 0.00 | 0.00 | 85 | 1002.5 |
| 20260905232454 | 10 | 313 | 24.1 | 30.6 | 0.00 | 0.00 | 0.00 | 86 | 1002.4 |
| 20260905230454 | 10 | 302 | 20.9 | 27.4 | 0.00 | 0.00 | 0.00 | 85 | 1002.2 |
| 20260905222454 | 10 | 330 | 27.4 | 33.8 | 0.00 | 0.00 | 0.00 | 87 | 1002.0 |
| 20260905220455 | 10 | 331 | 27.4 | 33.8 | 0.00 | 0.00 | 0.00 | 85 | 1001.8 |
| 20260905214455 | 10 | 329 | 27.4 | 37.0 | 0.00 | 0.00 | 0.00 | 83 | 1001.7 |
| 20260905212455 | 10 | 338 | 32.2 | 45.1 | 0.00 | 0.00 | 0.00 | 81 | 1001.5 |
| 20260905210454 | 11 | 341 | 30.6 | 43.5 | 0.00 | 0.00 | 0.00 | 81 | 1001.2 |
| 20260905204454 | 11 | 345 | 35.4 | 48.3 | 0.00 | 0.00 | 0.00 | 83 | 1000.8 |
| 20260905202124 | 10 | 327 | 27.4 | 41.8 | 0.00 | 0.00 | 0.00 | 89 | 1000.7 |
| 20260905200455 | 10 | 330 | 22.5 | 33.8 | 0.00 | 0.00 | 0.00 | 85 | 1000.6 |
| 20260905194124 | 11 | 312 | 20.9 | 30.6 | 0.00 | 0.00 | 0.00 | 86 | 1000.3 |
| 20260905192125 | 11 | 327 | 24.1 | 30.6 | 0.00 | 0.00 | 0.00 | 84 | 1000.3 |
| 20260905190125 | 12 | 345 | 35.4 | 46.7 | 0.00 | 0.00 | 0.00 | 80 | 1000.4 |
| 20260905184455 | 12 | 340 | 30.6 | 40.2 | 0.00 | 0.00 | 0.00 | 79 | 1000.1 |
| 20260905182454 | 12 | 343 | 33.8 | 45.1 | 0.00 | 0.00 | 0.00 | 78 | 999.8 |
| 20260905180452 | 12 | 342 | 32.2 | 41.8 | 0.00 | 0.00 | 0.00 | 77 | 999.7 |
| 20260905174451 | 12 | 344 | 33.8 | 41.8 | 0.00 | 0.00 | 0.00 | 75 | 999.4 |
| 20260905172452 | 13 | 341 | 32.2 | 37.0 | 0.00 | 0.00 | 0.00 | 74 | 999.1 |
| 20260905170453 | 13 | 339 | 32.2 | 38.6 | 0.00 | 0.00 | 0.00 | 77 | 998.8 |
| 20260905164454 | 13 | 346 | 30.6 | 37.0 | 0.00 | 0.00 | 0.00 | 77 | 998.5 |
| 20260905162452 | 13 | 345 | 27.4 | 35.4 | 0.00 | 0.00 | 0.00 | 76 | 998.2 |
| 20260905160453 | 13 | 10 | 27.4 | 37.0 | 0.00 | 0.00 | 0.00 | 83 | 998.0 |
| 20260905154452 | 14 | 337 | 25.7 | 46.7 | 0.00 | 0.00 | 0.00 | 76 | 997.7 |
| 20260905152454 | 14 | 346 | 24.1 | 30.6 | 0.00 | 0.00 | 0.00 | 74 | 997.5 |
| 20260905150453 | 13 | 350 | 22.5 | 29.0 | 0.00 | 0.00 | 0.00 | 78 | 997.3 |
| 20260905144453 | 13 | 358 | 37.0 | 43.5 | 0.00 | 0.00 | 0.00 | 82 | 997.2 |
| 20260905142453 | 15 | 336 | 9.7 | 17.7 | 0.00 | 0.00 | 0.00 | 74 | 996.8 |
| 20260905140123 | 14 | 22 | 11.3 | 17.7 | 0.00 | 0.00 | 0.00 | 80 | 996.5 |
| 20260905134452 | 13 | 32 | 16.1 | 19.3 | 0.00 | 0.00 | 0.00 | 85 | 996.5 |
| 20260905124453 | 14 | 297 | 12.9 | 17.7 | 0.00 | 0.00 | 0.00 | 73 | 996.3 |
| 20260905122123 | 14 | 304 | 16.1 | 20.9 | 0.00 | 0.00 | 0.00 | 75 | 996.2 |
| 20260905120452 | 15 | 313 | 14.5 | 19.3 | 0.00 | 0.00 | 0.00 | 68 | 996.0 |
| 20260905114453 | 14 | 321 | 14.5 | 17.7 | 0.00 | 0.00 | 0.00 | 74 | 996.0 |
| 20260905112125 | 14 | 330 | 19.3 | 22.5 | 0.00 | 0.00 | 0.00 | 71 | 995.8 |
| 20260905110452 | 14 | 313 | 17.7 | 22.5 | 0.00 | 0.00 | 0.00 | 73 | 995.7 |
| 20260905104453 | 14 | 306 | 16.1 | 20.9 | 0.00 | 0.00 | 0.00 | 67 | 995.6 |
| 20260905102453 | 14 | 303 | 16.1 | 22.5 | 0.00 | 0.00 | 0.00 | 68 | 995.5 |
| 20260905100452 | 14 | 308 | 17.7 | 20.9 | 0.00 | 0.00 | 0.00 | 66 | 995.4 |
| 20260905080450 | 12 | 353 | 9.7 | 11.3 | 0.00 | 0.00 | 0.00 | 79 | 994.9 |